Time;durP1;ratioP1;P1;durP2;ratioP2;P2;SDS_P1;SDS_P2;PMS_P1;PMS_P2;Temp;Humidity;BMP_temperature;BMP_pressure;BME280_temperature;BME280_humidity;BME280_pressure;Samples;Min_cycle;Max_cycle;Signal;HPM_P1;HPM_P2
2023/05/11 00:00:45;;;;;;;19.63;13.10;;;;;;;13.27;100.00;101353.13;5052265;28;20025;-68
2023/05/11 00:03:11;;;;;;;17.08;12.90;;;;;;;13.23;100.00;101356.66;5055198;28;20593;-68
2023/05/11 00:05:36;;;;;;;17.83;13.05;;;;;;;13.20;100.00;101351.28;5056080;28;20049;-68
2023/05/11 00:08:01;;;;;;;19.70;12.95;;;;;;;13.25;100.00;101346.91;5055845;28;20028;-68
2023/05/11 00:10:28;;;;;;;16.63;12.57;;;;;;;13.27;100.00;101344.25;5056088;28;20033;-68
2023/05/11 00:12:54;;;;;;;17.65;12.93;;;;;;;13.27;100.00;101339.88;5055844;28;20025;-68
2023/05/11 00:15:19;;;;;;;18.35;13.25;;;;;;;13.29;100.00;101342.53;5055876;28;20021;-69
2023/05/11 00:17:45;;;;;;;16.65;13.13;;;;;;;13.24;100.00;101333.66;5055737;28;20493;-68
2023/05/11 00:20:10;;;;;;;18.70;12.80;;;;;;;13.26;100.00;101334.53;5055684;28;20029;-68
2023/05/11 00:22:36;;;;;;;20.23;13.05;;;;;;;13.25;100.00;101331.00;5055686;28;20025;-68
2023/05/11 00:25:01;;;;;;;17.58;13.65;;;;;;;13.25;100.00;101331.00;5056013;28;20032;-69
2023/05/11 00:27:27;;;;;;;18.60;13.25;;;;;;;13.27;100.00;101341.59;5055640;28;20033;-68
2023/05/11 00:29:52;;;;;;;18.92;13.55;;;;;;;13.32;100.00;101338.97;5055700;28;20021;-68
2023/05/11 00:32:17;;;;;;;16.55;12.77;;;;;;;13.35;100.00;101345.22;5055337;28;20074;-68
2023/05/11 00:34:43;;;;;;;16.02;12.25;;;;;;;13.43;100.00;101347.94;5055084;28;20501;-68
2023/05/11 00:37:08;;;;;;;16.30;12.85;;;;;;;13.43;100.00;101340.84;5055154;28;20060;-68
2023/05/11 00:39:39;;;;;;;18.15;13.63;;;;;;;13.43;100.00;101348.81;5055416;28;20029;-69
2023/05/11 00:42:04;;;;;;;17.73;13.45;;;;;;;13.44;100.00;101347.03;5055416;28;20033;-68
2023/05/11 00:44:30;;;;;;;18.67;13.02;;;;;;;13.44;100.00;101344.38;5055066;28;20068;-68
2023/05/11 00:46:56;;;;;;;18.52;13.18;;;;;;;13.43;100.00;101353.22;5055321;28;20033;-68
2023/05/11 00:49:22;;;;;;;19.77;13.13;;;;;;;13.42;100.00;101349.69;5055076;28;20505;-68
2023/05/11 00:51:48;;;;;;;19.80;13.23;;;;;;;13.37;100.00;101343.47;5055426;28;20029;-68
2023/05/11 00:54:14;;;;;;;19.02;13.25;;;;;;;13.32;100.00;101354.91;5054877;28;20028;-68
2023/05/11 00:56:43;;;;;;;16.17;12.15;;;;;;;13.31;100.00;101363.75;5054768;28;20558;-68
2023/05/11 00:59:09;;;;;;;18.50;13.60;;;;;;;13.24;100.00;101354.88;5054910;28;20025;-68
2023/05/11 01:01:37;;;;;;;23.38;13.63;;;;;;;13.23;100.00;101356.66;5055109;28;20021;-69
2023/05/11 01:04:03;;;;;;;19.20;13.65;;;;;;;13.24;100.00;101354.88;5055291;28;20025;-68
2023/05/11 01:06:54;;;;;;;20.55;13.43;;;;;;;13.24;100.00;101357.53;5037290;28;20021;-68
2023/05/11 01:09:43;;;;;;;21.67;14.45;;;;;;;13.21;100.00;101353.03;5036755;28;20464;-68
2023/05/11 01:12:28;;;;;;;17.73;14.30;;;;;;;13.20;100.00;101359.22;5054552;28;20021;-68
2023/05/11 01:15:05;;;;;;;19.80;14.52;;;;;;;13.18;100.00;101358.31;5054706;28;20033;-68
2023/05/11 01:17:45;;;;;;;20.40;14.88;;;;;;;13.16;100.00;101359.19;5054950;28;20035;-68
2023/05/11 01:20:17;;;;;;;20.95;14.60;;;;;;;13.15;100.00;101360.06;5054508;28;20505;-67
2023/05/11 01:23:06;;;;;;;19.63;14.75;;;;;;;13.21;100.00;101368.97;5054664;28;20489;-68
2023/05/11 01:25:47;;;;;;;24.33;14.60;;;;;;;13.20;100.00;101364.53;5054897;28;20033;-68
2023/05/11 01:28:53;;;;;;;22.13;15.07;;;;;;;13.22;100.00;101368.13;5054550;28;20051;-67
2023/05/11 01:31:20;;;;;;;21.25;14.90;;;;;;;13.22;100.00;101365.44;5054437;28;20029;-68
2023/05/11 01:34:01;;;;;;;21.83;15.40;;;;;;;13.23;100.00;101369.00;5054267;28;20466;-67
2023/05/11 01:36:31;;;;;;;25.25;15.95;;;;;;;13.23;100.00;101363.69;5054397;28;20390;-68
2023/05/11 01:39:02;;;;;;;22.73;14.40;;;;;;;13.22;100.00;101357.50;5054143;28;20474;-67
2023/05/11 01:41:30;;;;;;;22.33;15.52;;;;;;;13.24;100.00;101363.72;5054243;28;20033;-68
2023/05/11 01:43:59;;;;;;;24.40;16.20;;;;;;;13.22;100.00;101361.88;5037133;28;20486;-68
2023/05/11 01:46:28;;;;;;;23.73;16.20;;;;;;;13.20;100.00;101356.56;5055074;28;20040;-68
2023/05/11 01:48:57;;;;;;;23.92;16.35;;;;;;;13.21;100.00;101358.34;5055578;28;20033;-68
2023/05/11 01:51:31;;;;;;;23.50;16.30;;;;;;;13.22;100.00;101364.53;5054369;28;20025;-68
2023/05/11 01:53:58;;;;;;;23.27;16.15;;;;;;;13.19;100.00;101362.75;5054098;28;20029;-67
2023/05/11 01:56:25;;;;;;;26.58;16.52;;;;;;;13.18;100.00;101355.66;5053975;28;20474;-68
2023/05/11 01:58:53;;;;;;;21.73;15.18;;;;;;;13.19;100.00;101362.75;5054142;28;20021;-67
2023/05/11 02:01:19;;;;;;;22.98;15.50;;;;;;;13.20;100.00;101358.34;5053972;28;20060;-67
2023/05/11 02:03:46;;;;;;;25.70;16.85;;;;;;;13.19;100.00;101367.16;5053825;28;20071;-67
2023/05/11 02:06:14;;;;;;;24.02;15.20;;;;;;;13.23;100.00;101359.28;5053782;28;20032;-68
2023/05/11 02:08:40;;;;;;;27.63;16.23;;;;;;;13.24;100.00;101361.06;5053504;28;20108;-67
2023/05/11 02:11:09;;;;;;;23.95;16.20;;;;;;;13.26;100.00;101363.72;5053815;28;20479;-68
2023/05/11 02:13:36;;;;;;;25.33;16.67;;;;;;;13.24;100.00;101362.84;5053852;28;20029;-67
2023/05/11 02:16:04;;;;;;;27.73;16.73;;;;;;;13.25;100.00;101367.25;5053621;28;20094;-67
2023/05/11 02:18:32;;;;;;;25.85;16.92;;;;;;;13.22;100.00;101353.91;5053577;28;20033;-68
2023/05/11 02:20:59;;;;;;;24.52;16.77;;;;;;;13.22;100.00;101359.22;5053348;28;20066;-68
2023/05/11 02:23:26;;;;;;;24.60;17.27;;;;;;;13.22;100.00;101354.84;5053393;28;20025;-68
2023/05/11 02:25:53;;;;;;;25.10;16.83;;;;;;;13.21;100.00;101344.19;5052712;28;20032;-67
2023/05/11 02:28:19;;;;;;;27.23;18.08;;;;;;;13.19;100.00;101354.81;5053392;28;20033;-67
2023/05/11 02:30:46;;;;;;;24.80;17.10;;;;;;;13.20;100.00;101348.63;5053344;28;20025;-67
2023/05/11 02:33:21;;;;;;;25.23;16.88;;;;;;;13.23;100.00;101353.06;5053046;28;20481;-68
2023/05/11 02:35:47;;;;;;;24.15;15.55;;;;;;;13.21;100.00;101361.00;5053318;28;20029;-68
2023/05/11 02:38:14;;;;;;;25.42;17.33;;;;;;;13.11;100.00;101359.16;5052967;28;20032;-68
2023/05/11 02:40:48;;;;;;;26.95;17.95;;;;;;;13.03;100.00;101358.19;5053378;28;20021;-67
2023/05/11 02:43:19;;;;;;;25.98;17.33;;;;;;;13.01;100.00;101354.63;5053204;28;20033;-68
2023/05/11 02:45:47;;;;;;;29.13;17.45;;;;;;;12.97;100.00;101369.63;5052772;28;20457;-68
2023/05/11 02:48:21;;;;;;;27.65;17.45;;;;;;;12.96;100.00;101365.19;5052933;28;20532;-68
2023/05/11 02:50:50;;;;;;;26.40;17.98;;;;;;;12.99;100.00;101362.59;5053327;28;20377;-68
2023/05/11 02:53:16;;;;;;;33.72;18.63;;;;;;;13.01;100.00;101359.94;5052808;28;20051;-67
2023/05/11 02:55:42;;;;;;;25.80;18.48;;;;;;;13.03;100.00;101360.84;5052765;28;20484;-67
2023/05/11 02:58:08;;;;;;;30.00;17.92;;;;;;;13.03;100.00;101355.53;5052668;28;20120;-68
2023/05/11 03:00:33;;;;;;;25.70;18.02;;;;;;;13.04;100.00;101357.31;5052624;28;20036;-68
2023/05/11 03:02:59;;;;;;;28.80;18.40;;;;;;;13.08;100.00;101363.53;5053031;28;20105;-67
2023/05/11 03:05:25;;;;;;;29.85;19.50;;;;;;;13.09;100.00;101358.25;5052714;28;20134;-68
2023/05/11 03:07:52;;;;;;;29.35;19.63;;;;;;;13.09;100.00;101360.00;5034616;28;20021;-68
2023/05/11 03:10:17;;;;;;;32.78;20.33;;;;;;;13.07;100.00;101359.13;5053013;28;20476;-67
2023/05/11 03:12:44;;;;;;;28.92;19.55;;;;;;;13.07;100.00;101360.00;5054874;28;20060;-67
2023/05/11 03:15:11;;;;;;;31.75;20.25;;;;;;;13.04;100.00;101357.31;5053790;28;20437;-68
2023/05/11 03:17:38;;;;;;;31.67;20.58;;;;;;;13.07;100.00;101359.13;5052840;28;20024;-67
2023/05/11 03:20:06;;;;;;;30.85;20.25;;;;;;;13.04;100.00;101370.56;5052615;28;20048;-67
2023/05/11 03:22:34;;;;;;;33.00;20.90;;;;;;;13.02;100.00;101365.28;5052631;28;20502;-67
2023/05/11 03:25:02;;;;;;;32.25;21.25;;;;;;;13.03;100.00;101359.09;5052612;28;20021;-67
2023/05/11 03:27:28;;;;;;;32.35;20.48;;;;;;;13.00;100.00;101364.34;5052364;28;20036;-68
2023/05/11 03:29:55;;;;;;;30.13;19.33;;;;;;;13.02;100.00;101356.44;5052601;28;20026;-68
2023/05/11 03:32:21;;;;;;;32.63;20.73;;;;;;;13.03;100.00;101366.16;5052562;28;20024;-68
2023/05/11 03:34:46;;;;;;;32.45;21.00;;;;;;;13.03;100.00;101352.91;5052348;28;20378;-68
2023/05/11 03:37:13;;;;;;;35.83;21.73;;;;;;;12.97;100.00;101360.78;5055889;28;20108;-67
2023/05/11 03:39:42;;;;;;;36.83;23.13;;;;;;;12.98;100.00;101367.88;5056897;28;20013;-68
2023/05/11 03:42:09;;;;;;;39.70;23.27;;;;;;;12.90;100.00;101364.28;5056352;28;20485;-67
2023/05/11 03:44:35;;;;;;;36.45;22.98;;;;;;;12.84;100.00;101366.84;5056487;28;20478;-67
2023/05/11 03:47:02;;;;;;;37.83;24.02;;;;;;;12.82;100.00;101361.53;5056656;28;20036;-67
2023/05/11 03:49:29;;;;;;;35.15;22.60;;;;;;;12.83;100.00;101365.06;5056279;28;20421;-68
2023/05/11 03:51:55;;;;;;;36.72;23.50;;;;;;;12.85;100.00;101363.31;5056411;28;20429;-67
2023/05/11 03:54:21;;;;;;;38.17;23.92;;;;;;;12.86;100.00;101365.13;5056238;28;20033;-68
2023/05/11 03:56:46;;;;;;;41.55;23.73;;;;;;;12.85;100.00;101360.66;5056016;28;20106;-68
2023/05/11 03:59:15;;;;;;;38.88;24.02;;;;;;;12.89;100.00;101371.34;5056248;28;20059;-68
2023/05/11 04:01:42;;;;;;;43.28;23.92;;;;;;;12.88;100.00;101363.34;5056283;28;20083;-68
2023/05/11 04:04:07;;;;;;;42.17;23.60;;;;;;;12.89;100.00;101363.38;5055905;28;20029;-67
2023/05/11 04:06:33;;;;;;;36.38;24.20;;;;;;;12.91;100.00;101358.97;5055987;28;20033;-68
2023/05/11 04:08:58;;;;;;;36.60;23.85;;;;;;;12.93;100.00;101365.19;5055771;28;20482;-67
2023/05/11 04:11:26;;;;;;;41.85;24.75;;;;;;;12.96;100.00;101359.88;5055817;28;20131;-68
2023/05/11 04:13:51;;;;;;;38.47;24.00;;;;;;;13.00;100.00;101358.16;5055962;28;20111;-67
2023/05/11 04:16:17;;;;;;;35.60;23.58;;;;;;;12.99;100.00;101362.59;5056010;28;20108;-67
2023/05/11 04:18:42;;;;;;;37.90;23.80;;;;;;;12.99;100.00;101359.94;5055772;28;20025;-68
2023/05/11 04:21:08;;;;;;;38.50;23.33;;;;;;;13.02;100.00;101359.09;5055797;28;20068;-68
2023/05/11 04:23:33;;;;;;;36.92;23.27;;;;;;;13.03;100.00;101369.69;5055676;28;20128;-68
2023/05/11 04:25:58;;;;;;;35.67;21.50;;;;;;;13.08;100.00;101363.53;5055491;28;20021;-67
2023/05/11 04:28:26;;;;;;;33.08;21.80;;;;;;;13.08;100.00;101364.44;5055598;28;20108;-68
2023/05/11 04:30:56;;;;;;;34.67;22.98;;;;;;;13.10;100.00;101377.69;5055617;28;20059;-67
2023/05/11 04:33:22;;;;;;;35.13;22.70;;;;;;;13.08;100.00;101368.84;5055709;28;20083;-68
2023/05/11 04:35:52;;;;;;;36.03;23.88;;;;;;;13.09;100.00;101360.00;5037651;28;20025;-67
2023/05/11 04:38:19;;;;;;;36.30;23.27;;;;;;;13.07;100.00;101362.66;5055086;28;20033;-68
2023/05/11 04:40:46;;;;;;;39.42;24.73;;;;;;;13.08;100.00;101369.72;5055524;28;20505;-68
2023/05/11 04:43:12;;;;;;;38.33;24.77;;;;;;;13.02;100.00;101367.94;5055417;28;20040;-68
2023/05/11 04:45:37;;;;;;;43.00;24.15;;;;;;;13.04;100.00;101370.56;5055112;28;20053;-68
2023/05/11 04:48:03;;;;;;;32.20;21.13;;;;;;;13.05;100.00;101372.34;5054577;28;20056;-67
2023/05/11 04:50:28;;;;;;;37.63;23.27;;;;;;;13.01;100.00;101370.53;5055562;28;20048;-68
2023/05/11 04:52:53;;;;;;;38.08;23.95;;;;;;;12.99;100.00;101380.25;5055163;28;20029;-68
2023/05/11 04:55:20;;;;;;;38.83;24.35;;;;;;;12.97;100.00;101374.03;5055156;28;20021;-67
2023/05/11 04:57:45;;;;;;;39.25;23.98;;;;;;;12.92;100.00;101381.06;5055045;28;20033;-67
2023/05/11 05:00:11;;;;;;;35.85;23.10;;;;;;;12.93;100.00;101389.06;5055022;28;20031;-67
2023/05/11 05:02:36;;;;;;;44.53;25.65;;;;;;;12.86;100.00;101389.88;5054720;28;20035;-68
2023/05/11 05:05:02;;;;;;;46.10;25.73;;;;;;;12.84;100.00;101398.66;5054867;28;20033;-68
2023/05/11 05:07:27;;;;;;;43.40;26.13;;;;;;;12.81;100.00;101390.72;5054508;28;20029;-67
2023/05/11 05:09:52;;;;;;;52.20;27.95;;;;;;;12.76;100.00;101395.94;5055015;28;20103;-68
2023/05/11 05:12:18;;;;;;;44.90;27.27;;;;;;;12.74;100.00;101395.03;5054646;28;20132;-68
2023/05/11 05:14:43;;;;;;;50.30;28.10;;;;;;;12.67;100.00;101395.84;5054727;28;20025;-67
2023/05/11 05:17:09;;;;;;;50.13;28.25;;;;;;;12.69;100.00;101404.72;5054789;28;20154;-68
2023/05/11 05:19:34;;;;;;;49.80;27.35;;;;;;;12.70;100.00;101414.44;5054680;28;20107;-68
2023/05/11 05:22:00;;;;;;;55.20;29.35;;;;;;;12.65;100.00;101406.44;5054824;28;20031;-68
2023/05/11 05:24:25;;;;;;;52.35;28.95;;;;;;;12.67;100.00;101404.69;5054665;28;20025;-67
2023/05/11 05:26:50;;;;;;;51.47;29.15;;;;;;;12.65;100.00;101405.56;5054720;28;20116;-68
2023/05/11 05:29:16;;;;;;;53.72;29.23;;;;;;;12.61;100.00;101409.03;5055138;28;20033;-68
2023/05/11 05:31:41;;;;;;;52.33;29.88;;;;;;;12.64;100.00;101409.09;5055176;28;20432;-68
2023/05/11 05:34:07;;;;;;;52.50;29.50;;;;;;;12.69;100.00;101410.03;5054316;28;20060;-67
2023/05/11 05:36:32;;;;;;;50.90;29.67;;;;;;;12.75;100.00;101418.03;5054397;28;20427;-67
2023/05/11 05:38:57;;;;;;;50.92;29.98;;;;;;;12.74;100.00;101414.50;5054035;28;20029;-68
2023/05/11 05:41:23;;;;;;;52.03;28.42;;;;;;;12.76;100.00;101415.41;5054210;28;20099;-68
2023/05/11 05:43:48;;;;;;;49.00;29.48;;;;;;;12.79;100.00;101417.19;5054160;28;20036;-68
2023/05/11 05:46:14;;;;;;;50.22;29.63;;;;;;;12.86;100.00;101415.50;5053962;28;20041;-67
2023/05/11 05:48:40;;;;;;;49.22;28.75;;;;;;;12.90;100.00;101420.84;5036306;28;20482;-67
2023/05/11 05:51:06;;;;;;;51.10;30.30;;;;;;;12.89;100.00;101415.50;5054105;28;20057;-68
2023/05/11 05:53:31;;;;;;;48.08;27.90;;;;;;;12.92;100.00;101427.06;5053783;28;20079;-68
2023/05/11 05:55:56;;;;;;;45.60;28.05;;;;;;;12.96;100.00;101426.22;5054010;28;20021;-68
2023/05/11 05:58:22;;;;;;;42.92;26.42;;;;;;;13.04;100.00;101434.25;5054009;28;20127;-68
2023/05/11 06:00:48;;;;;;;49.35;28.20;;;;;;;13.09;100.00;101426.34;5053157;28;20048;-68
2023/05/11 06:03:13;;;;;;;46.42;28.40;;;;;;;13.18;100.00;101435.28;5053941;28;20108;-68
2023/05/11 06:05:39;;;;;;;47.90;28.70;;;;;;;13.28;100.00;101436.31;5053646;28;20516;-68
2023/05/11 06:08:04;;;;;;;46.65;27.77;;;;;;;13.33;100.00;101439.00;5053296;28;20485;-68
2023/05/11 06:10:29;;;;;;;45.53;27.90;;;;;;;13.32;100.00;101440.75;5053841;28;20075;-68
2023/05/11 06:12:55;;;;;;;49.47;27.85;;;;;;;13.33;100.00;101431.91;5053574;28;20059;-68
2023/05/11 06:15:21;;;;;;;50.60;28.10;;;;;;;13.35;100.00;101438.09;5053820;28;20478;-68
2023/05/11 06:17:48;;;;;;;46.30;26.02;;;;;;;13.45;100.00;101433.78;5053584;28;20033;-67
2023/05/11 06:20:13;;;;;;;48.45;27.60;;;;;;;13.51;100.00;101433.84;5035673;28;20029;-68
2023/05/11 06:22:38;;;;;;;46.17;27.50;;;;;;;13.58;100.00;101435.66;5053253;28;20029;-68
2023/05/11 06:25:05;;;;;;;54.92;28.40;;;;;;;13.64;100.00;101433.03;5053574;28;20033;-68
2023/05/11 06:27:30;;;;;;;52.67;29.80;;;;;;;13.67;100.00;101442.81;5053950;28;20154;-68
2023/05/11 06:29:55;;;;;;;56.65;30.90;;;;;;;13.67;100.00;101446.34;5053340;28;20032;-68
2023/05/11 06:32:21;;;;;;;56.75;30.33;;;;;;;13.66;100.00;101444.59;5053239;28;20036;-68
2023/05/11 06:34:46;;;;;;;60.67;32.22;;;;;;;13.68;100.00;101441.94;5053372;28;20187;-68
2023/05/11 06:37:19;;;;;;;58.25;31.00;;;;;;;13.66;100.00;101443.66;5053130;28;20482;-68
2023/05/11 06:39:44;;;;;;;;;;;;;;;13.81;100.00;101450.88;5053668;28;20466;-68
2023/05/11 06:42:09;;;;;;;60.25;30.65;;;;;;;13.84;100.00;101449.13;5053106;28;19919;-68
2023/05/11 06:44:35;;;;;;;60.53;31.27;;;;;;;13.89;100.00;101450.06;5052804;28;20032;-69
2023/05/11 06:47:00;;;;;;;57.17;31.25;;;;;;;13.95;100.00;101452.75;5053141;28;20450;-69
2023/05/11 06:49:26;;;;;;;61.70;31.35;;;;;;;13.98;100.00;101451.88;5053154;28;20112;-69
2023/05/11 06:51:51;;;;;;;64.97;33.53;;;;;;;13.97;100.00;101453.66;5052886;28;20029;-69
2023/05/11 06:54:16;;;;;;;59.47;32.95;;;;;;;13.98;100.00;101455.44;5052766;28;20029;-68
2023/05/11 06:56:42;;;;;;;55.90;31.38;;;;;;;14.01;100.00;101458.09;5052866;28;20025;-68
2023/05/11 06:59:07;;;;;;;61.25;33.33;;;;;;;14.05;100.00;101459.03;5052633;28;20116;-68
2023/05/11 07:01:32;;;;;;;61.45;32.90;;;;;;;14.01;100.00;101463.44;5052915;28;20033;-68
2023/05/11 07:03:58;;;;;;;60.80;33.55;;;;;;;13.97;100.00;101460.75;5052831;28;20501;-68
2023/05/11 07:06:23;;;;;;;61.80;33.05;;;;;;;13.97;100.00;101463.41;5052690;28;20056;-68
2023/05/11 07:08:48;;;;;;;59.35;32.33;;;;;;;13.97;100.00;101460.75;5052890;28;20033;-68
2023/05/11 07:11:14;;;;;;;59.83;33.05;;;;;;;13.97;100.00;101458.97;5052476;28;20526;-68
2023/05/11 07:13:41;;;;;;;60.20;32.63;;;;;;;13.94;100.00;101469.56;5052953;28;20018;-68
2023/05/11 07:16:06;;;;;;;59.53;32.90;;;;;;;13.94;100.00;101466.03;5052595;28;20072;-68
2023/05/11 07:18:32;;;;;;;66.38;32.75;;;;;;;13.95;100.00;101465.13;5052707;28;20112;-68
2023/05/11 07:20:57;;;;;;;56.75;33.00;;;;;;;13.98;100.00;101463.41;5052625;28;20025;-68
2023/05/11 07:23:22;;;;;;;61.47;32.17;;;;;;;14.03;100.00;101464.31;5052626;28;20029;-68
2023/05/11 07:25:48;;;;;;;60.08;33.17;;;;;;;14.05;100.00;101467.00;5052659;28;20040;-68
2023/05/11 07:28:13;;;;;;;56.00;33.28;;;;;;;14.01;100.00;101457.22;5052590;28;20028;-68
2023/05/11 07:30:39;;;;;;;59.80;33.60;;;;;;;14.02;100.00;101469.63;5052561;28;20025;-68
2023/05/11 07:33:05;;;;;;;59.20;32.22;;;;;;;14.05;100.00;101467.00;5052727;28;20053;-68
2023/05/11 07:35:30;;;;;;;58.30;32.30;;;;;;;13.98;100.00;101467.81;5052278;28;20029;-69
2023/05/11 07:37:56;;;;;;;51.17;30.45;;;;;;;14.01;100.00;101474.06;5052453;28;20108;-68
2023/05/11 07:40:21;;;;;;;56.95;31.27;;;;;;;13.98;100.00;101470.47;5052500;28;20382;-68
2023/05/11 07:42:47;;;;;;;52.65;32.25;;;;;;;13.98;100.00;101482.00;5052422;28;20422;-68
2023/05/11 07:45:12;;;;;;;48.67;30.15;;;;;;;14.03;100.00;101482.03;5052338;28;20422;-68
2023/05/11 07:47:37;;;;;;;51.13;29.30;;;;;;;14.10;100.00;101475.88;5052444;28;20104;-68
2023/05/11 07:50:03;;;;;;;52.63;30.50;;;;;;;14.19;100.00;101480.38;5034362;28;20500;-68
2023/05/11 07:52:29;;;;;;;52.03;29.63;;;;;;;14.26;100.00;101484.81;5052255;28;20040;-68
2023/05/11 07:54:55;;;;;;;52.03;29.40;;;;;;;14.33;100.00;101480.44;5052461;28;20037;-69
2023/05/11 07:57:20;;;;;;;56.05;31.13;;;;;;;14.38;100.00;101476.03;5052574;28;20075;-68
2023/05/11 07:59:46;;;;;;;57.17;32.35;;;;;;;14.37;99.53;101469.81;5052368;28;20029;-68
2023/05/11 08:02:11;;;;;;;57.10;33.42;;;;;;;14.40;98.97;101485.81;5052150;28;20025;-68
2023/05/11 08:04:37;;;;;;;61.70;34.45;;;;;;;14.44;99.27;101486.72;5052224;28;20048;-68
2023/05/11 08:07:03;;;;;;;66.75;36.55;;;;;;;14.42;98.92;101484.03;5052300;28;20442;-68
2023/05/11 08:09:28;;;;;;;78.43;37.85;;;;;;;14.41;99.38;101484.03;5046801;28;20029;-70
2023/05/11 08:11:55;;;;;;;79.90;39.03;;;;;;;14.37;98.96;101485.78;5032275;28;20029;-66
2023/05/11 08:14:21;;;;;;;72.45;36.78;;;;;;;14.34;98.34;101485.75;5032339;28;20030;-65
2023/05/11 08:16:48;;;;;;;69.68;36.10;;;;;;;14.32;98.30;101492.84;5032267;28;20395;-65
2023/05/11 08:19:13;;;;;;;69.38;36.22;;;;;;;14.32;98.88;101484.88;5032346;28;20034;-65
2023/05/11 08:21:39;;;;;;;67.97;36.42;;;;;;;14.32;99.37;101489.31;5032011;28;20032;-65
2023/05/11 08:24:04;;;;;;;66.53;35.45;;;;;;;14.40;99.31;101490.25;5035021;28;20411;-67
2023/05/11 08:26:30;;;;;;;67.68;34.78;;;;;;;14.47;99.20;101495.59;5035808;28;20061;-66
2023/05/11 08:28:55;;;;;;;70.35;35.60;;;;;;;14.48;98.42;101489.44;5035779;28;20026;-66
2023/05/11 08:31:20;;;;;;;69.15;34.88;;;;;;;14.50;97.87;101495.63;5035726;28;20079;-66
2023/05/11 08:33:46;;;;;;;76.72;38.20;;;;;;;14.50;98.42;101497.41;5035404;28;20483;-67
2023/05/11 08:36:12;;;;;;;84.60;39.42;;;;;;;14.41;97.84;101492.88;5035414;28;20072;-67
2023/05/11 08:38:38;;;;;;;80.53;40.65;;;;;;;14.29;98.60;101491.03;5035477;28;20061;-65
2023/05/11 08:41:03;;;;;;;74.97;38.65;;;;;;;14.32;98.77;101497.28;5035473;28;20384;-67
2023/05/11 08:43:31;;;;;;;80.88;39.33;;;;;;;14.31;98.24;101488.41;5035408;28;20030;-66
2023/05/11 08:46:02;;;;;;;72.60;37.72;;;;;;;14.26;97.88;101483.06;5035250;28;20045;-66
2023/05/11 08:48:29;;;;;;;80.03;38.45;;;;;;;14.33;98.51;101493.72;5035604;28;20112;-66
2023/05/11 08:50:55;;;;;;;83.22;38.33;;;;;;;14.40;98.45;101492.91;5035191;28;20018;-66
2023/05/11 08:53:22;;;;;;;80.38;39.65;;;;;;;14.49;98.97;101487.66;5035486;28;20442;-67
2023/05/11 08:55:49;;;;;;;76.55;39.38;;;;;;;14.57;97.57;101487.69;5035233;28;20475;-65
2023/05/11 08:58:19;;;;;;;74.43;38.58;;;;;;;14.69;98.01;101491.31;5035242;28;20383;-65
2023/05/11 09:00:46;;;;;;;81.72;39.50;;;;;;;14.79;97.46;101492.22;5035194;28;20550;-68
2023/05/11 09:03:12;;;;;;;77.78;40.17;;;;;;;14.94;97.81;101500.22;5034928;28;20028;-67
2023/05/11 09:05:38;;;;;;;72.78;38.90;;;;;;;15.02;95.67;101498.50;5034893;28;20108;-64
2023/05/11 09:08:06;;;;;;;77.15;38.92;;;;;;;15.09;95.70;101503.84;5017079;28;20021;-65
2023/05/11 09:10:32;;;;;;;78.13;41.33;;;;;;;15.03;93.57;101504.69;5034819;28;20025;-67
2023/05/11 09:12:57;;;;;;;81.72;40.08;;;;;;;15.02;94.12;101502.94;5034823;28;20036;-65
2023/05/11 09:15:22;;;;;;;77.03;39.63;;;;;;;14.95;92.91;101501.16;5034705;28;20474;-69
2023/05/11 09:17:48;;;;;;;86.90;40.33;;;;;;;14.91;93.98;101504.69;5034270;28;20037;-66
2023/05/11 09:20:14;;;;;;;83.45;40.92;;;;;;;14.89;93.11;101504.66;5034751;28;20555;-65
2023/05/11 09:22:42;;;;;;;78.53;38.85;;;;;;;14.93;93.49;101513.53;5034760;28;20040;-64
2023/05/11 09:25:12;;;;;;;80.20;39.42;;;;;;;14.99;93.52;101501.16;5034875;28;20433;-66
2023/05/11 09:27:44;;;;;;;82.05;40.15;;;;;;;15.08;94.15;101504.75;5034895;28;20419;-65
2023/05/11 09:30:17;;;;;;;70.50;37.00;;;;;;;15.16;92.83;101505.63;5034572;28;20021;-65
2023/05/11 09:32:57;;;;;;;80.40;39.90;;;;;;;15.16;91.99;101500.28;5034573;28;20030;-66
2023/05/11 09:35:31;;;;;;;84.38;40.38;;;;;;;15.17;91.65;101505.66;5034217;28;20025;-65
2023/05/11 09:37:58;;;;;;;90.30;41.83;;;;;;;15.16;92.43;101500.28;5034329;28;20490;-68
2023/05/11 09:40:24;;;;;;;80.05;39.00;;;;;;;15.31;91.64;101502.13;5034558;28;20108;-66
2023/05/11 09:42:50;;;;;;;82.38;40.63;;;;;;;15.55;90.97;101502.16;5034173;28;20033;-67
2023/05/11 09:45:40;;;;;;;83.07;41.90;;;;;;;15.87;90.63;101502.19;5016496;28;20045;-65
2023/05/11 09:48:12;;;;;;;69.57;36.88;;;;;;;16.14;87.62;101506.59;5034340;28;20105;-66
2023/05/11 09:50:38;;;;;;;75.00;36.80;;;;;;;16.36;86.19;101512.78;5034082;28;20356;-65
2023/05/11 09:53:03;;;;;;;72.00;37.30;;;;;;;16.50;86.79;101508.31;5034242;28;20036;-66
2023/05/11 09:55:28;;;;;;;66.97;36.65;;;;;;;16.60;85.54;101503.81;5034029;28;20029;-65
2023/05/11 09:57:56;;;;;;;71.88;36.88;;;;;;;16.66;85.78;101511.81;5034358;28;20546;-66
2023/05/11 10:00:21;;;;;;;69.22;36.28;;;;;;;16.69;83.76;101509.09;5033875;28;20075;-66
2023/05/11 10:03:07;;;;;;;70.57;35.80;;;;;;;16.71;84.53;101514.47;5033975;28;20021;-67
2023/05/11 10:05:35;;;;;;;69.53;37.47;;;;;;;16.60;84.94;101502.94;5033204;28;20071;-66
2023/05/11 10:08:04;;;;;;;78.97;40.30;;;;;;;16.44;84.65;101510.09;5033637;28;20028;-68
2023/05/11 10:10:32;;;;;;;74.78;39.97;;;;;;;16.31;85.16;101505.66;5033791;28;20064;-65
2023/05/11 10:13:02;;;;;;;74.03;38.95;;;;;;;16.33;85.28;101503.91;5033778;28;20459;-66
2023/05/11 10:15:29;;;;;;;80.20;41.25;;;;;;;16.45;86.23;101501.22;5016567;28;20021;-67
2023/05/11 10:17:56;;;;;;;76.38;40.00;;;;;;;16.46;85.00;101506.53;5033892;28;20179;-65
2023/05/11 10:20:23;;;;;;;77.43;42.05;;;;;;;16.47;85.96;101512.75;5033414;28;20155;-65
2023/05/11 10:22:54;;;;;;;76.72;41.00;;;;;;;16.47;83.96;101508.31;5033715;28;20033;-65
2023/05/11 10:25:23;;;;;;;78.30;40.85;;;;;;;16.52;84.59;101510.94;5033688;28;20029;-66
2023/05/11 10:27:50;;;;;;;73.55;39.05;;;;;;;16.47;83.84;101504.75;5033493;28;20021;-66
2023/05/11 10:30:16;;;;;;;77.63;39.88;;;;;;;16.47;85.61;101510.97;5033686;28;20029;-66
2023/05/11 10:32:43;;;;;;;77.97;41.40;;;;;;;16.46;82.62;101511.88;5033345;28;20049;-66
2023/05/11 10:35:09;;;;;;;76.07;38.58;;;;;;;16.58;82.13;101507.41;5032772;28;20048;-68
2023/05/11 10:37:34;;;;;;;72.28;39.08;;;;;;;16.59;81.99;101509.16;5033405;28;20491;-68
2023/05/11 10:40:00;;;;;;;71.88;39.13;;;;;;;16.54;81.27;101511.84;5033377;28;20021;-67
2023/05/11 10:42:49;;;;;;;76.25;39.40;;;;;;;16.63;83.39;101508.25;5033279;28;20390;-67
2023/05/11 10:45:30;;;;;;;76.00;39.00;;;;;;;16.72;82.56;101503.81;5032320;28;20081;-65
2023/05/11 10:48:30;;;;;;;77.53;41.72;;;;;;;16.59;82.43;101506.50;5033151;28;20037;-67
2023/05/11 10:51:43;;;;;;;72.68;40.05;;;;;;;16.57;83.71;101506.47;5033314;28;20121;-67
2023/05/11 10:54:33;;;;;;;70.78;34.65;;;;;;;16.70;80.72;101507.31;4958097;28;20438;-66
2023/05/11 10:57:11;;;;;;;65.90;34.53;;;;;;;16.93;78.07;101507.28;5033110;28;20029;-65
2023/05/11 10:59:55;;;;;;;65.97;34.20;;;;;;;17.24;80.41;101503.53;5033456;28;20026;-66
2023/05/11 11:02:20;;;;;;;62.85;34.17;;;;;;;17.51;76.74;101490.88;5032836;28;20068;-66
2023/05/11 11:04:49;;;;;;;56.47;31.08;;;;;;;17.79;75.55;101496.06;5032797;28;20108;-65
2023/05/11 11:07:18;;;;;;;56.92;31.95;;;;;;;18.18;75.67;101497.47;5033161;28;20034;-67